sensor_id;sensor_type;location;lat;lon;timestamp;P1;durP1;ratioP1;P2;durP2;ratioP2
3359;SDS011;1693;49.602;11.046;2023-06-10T00:01:53;9.13;;;7.70;;
3359;SDS011;1693;49.602;11.046;2023-06-10T00:04:25;8.60;;;7.77;;
3359;SDS011;1693;49.602;11.046;2023-06-10T00:06:53;10.27;;;7.47;;
3359;SDS011;1693;49.602;11.046;2023-06-10T00:09:21;8.27;;;7.40;;
3359;SDS011;1693;49.602;11.046;2023-06-10T00:11:48;8.40;;;7.70;;
3359;SDS011;1693;49.602;11.046;2023-06-10T00:14:15;8.57;;;7.77;;
3359;SDS011;1693;49.602;11.046;2023-06-10T00:16:42;9.10;;;8.30;;
3359;SDS011;1693;49.602;11.046;2023-06-10T00:19:11;8.90;;;8.20;;
3359;SDS011;1693;49.602;11.046;2023-06-10T00:21:40;9.70;;;8.70;;
3359;SDS011;1693;49.602;11.046;2023-06-10T00:24:10;11.00;;;8.63;;
3359;SDS011;1693;49.602;11.046;2023-06-10T00:26:37;8.93;;;8.17;;
3359;SDS011;1693;49.602;11.046;2023-06-10T00:29:04;9.17;;;8.37;;
3359;SDS011;1693;49.602;11.046;2023-06-10T00:31:33;9.53;;;7.73;;
3359;SDS011;1693;49.602;11.046;2023-06-10T00:34:00;10.17;;;7.97;;
3359;SDS011;1693;49.602;11.046;2023-06-10T00:36:29;13.23;;;9.23;;
3359;SDS011;1693;49.602;11.046;2023-06-10T00:38:56;10.33;;;9.33;;
3359;SDS011;1693;49.602;11.046;2023-06-10T00:41:23;9.70;;;8.77;;
3359;SDS011;1693;49.602;11.046;2023-06-10T00:43:52;8.37;;;7.57;;
3359;SDS011;1693;49.602;11.046;2023-06-10T00:46:19;10.37;;;9.37;;
3359;SDS011;1693;49.602;11.046;2023-06-10T00:48:47;9.77;;;8.97;;
3359;SDS011;1693;49.602;11.046;2023-06-10T00:51:14;13.23;;;9.00;;
3359;SDS011;1693;49.602;11.046;2023-06-10T00:53:44;9.20;;;8.33;;
3359;SDS011;1693;49.602;11.046;2023-06-10T00:56:12;10.00;;;8.43;;
3359;SDS011;1693;49.602;11.046;2023-06-10T00:58:40;10.40;;;9.57;;
3359;SDS011;1693;49.602;11.046;2023-06-10T01:01:07;10.53;;;9.63;;
3359;SDS011;1693;49.602;11.046;2023-06-10T01:03:36;8.93;;;8.10;;
3359;SDS011;1693;49.602;11.046;2023-06-10T01:06:06;9.30;;;8.40;;
3359;SDS011;1693;49.602;11.046;2023-06-10T01:08:38;12.67;;;9.13;;
3359;SDS011;1693;49.602;11.046;2023-06-10T01:11:13;12.07;;;10.77;;
3359;SDS011;1693;49.602;11.046;2023-06-10T01:13:45;14.63;;;10.33;;
3359;SDS011;1693;49.602;11.046;2023-06-10T01:16:16;12.70;;;10.60;;
3359;SDS011;1693;49.602;11.046;2023-06-10T01:18:43;10.27;;;9.27;;
3359;SDS011;1693;49.602;11.046;2023-06-10T01:21:15;14.67;;;10.50;;
3359;SDS011;1693;49.602;11.046;2023-06-10T01:23:46;10.73;;;9.70;;
3359;SDS011;1693;49.602;11.046;2023-06-10T01:26:13;13.00;;;9.90;;
3359;SDS011;1693;49.602;11.046;2023-06-10T01:28:43;10.63;;;9.63;;
3359;SDS011;1693;49.602;11.046;2023-06-10T01:31:16;11.23;;;10.13;;
3359;SDS011;1693;49.602;11.046;2023-06-10T01:33:47;11.10;;;10.00;;
3359;SDS011;1693;49.602;11.046;2023-06-10T01:36:19;11.30;;;10.13;;
3359;SDS011;1693;49.602;11.046;2023-06-10T01:38:49;15.70;;;10.37;;
3359;SDS011;1693;49.602;11.046;2023-06-10T01:41:18;11.27;;;10.10;;
3359;SDS011;1693;49.602;11.046;2023-06-10T01:43:47;11.50;;;10.10;;
3359;SDS011;1693;49.602;11.046;2023-06-10T01:46:14;11.70;;;10.77;;
3359;SDS011;1693;49.602;11.046;2023-06-10T01:48:44;11.57;;;9.67;;
3359;SDS011;1693;49.602;11.046;2023-06-10T01:51:12;10.90;;;9.90;;
3359;SDS011;1693;49.602;11.046;2023-06-10T01:53:40;14.13;;;9.10;;
3359;SDS011;1693;49.602;11.046;2023-06-10T01:56:07;10.27;;;9.33;;
3359;SDS011;1693;49.602;11.046;2023-06-10T01:58:34;10.63;;;9.70;;
3359;SDS011;1693;49.602;11.046;2023-06-10T02:01:02;13.20;;;9.90;;
3359;SDS011;1693;49.602;11.046;2023-06-10T02:03:29;11.00;;;10.00;;
3359;SDS011;1693;49.602;11.046;2023-06-10T02:05:57;14.07;;;11.30;;
3359;SDS011;1693;49.602;11.046;2023-06-10T02:08:24;10.73;;;9.73;;
3359;SDS011;1693;49.602;11.046;2023-06-10T02:10:54;11.40;;;10.30;;
3359;SDS011;1693;49.602;11.046;2023-06-10T02:13:21;11.67;;;10.70;;
3359;SDS011;1693;49.602;11.046;2023-06-10T02:15:48;11.60;;;10.50;;
3359;SDS011;1693;49.602;11.046;2023-06-10T02:18:15;13.00;;;11.70;;
3359;SDS011;1693;49.602;11.046;2023-06-10T02:20:45;11.87;;;10.77;;
3359;SDS011;1693;49.602;11.046;2023-06-10T02:23:12;12.97;;;11.53;;
3359;SDS011;1693;49.602;11.046;2023-06-10T02:25:39;12.07;;;10.97;;
3359;SDS011;1693;49.602;11.046;2023-06-10T02:28:08;13.47;;;11.93;;
3359;SDS011;1693;49.602;11.046;2023-06-10T02:30:35;13.10;;;11.97;;
3359;SDS011;1693;49.602;11.046;2023-06-10T02:33:05;14.07;;;12.77;;
3359;SDS011;1693;49.602;11.046;2023-06-10T02:35:35;12.63;;;11.40;;
3359;SDS011;1693;49.602;11.046;2023-06-10T02:38:02;11.93;;;10.93;;
3359;SDS011;1693;49.602;11.046;2023-06-10T02:40:30;16.10;;;12.50;;
3359;SDS011;1693;49.602;11.046;2023-06-10T02:42:57;13.37;;;12.10;;
3359;SDS011;1693;49.602;11.046;2023-06-10T02:45:26;14.50;;;13.10;;
3359;SDS011;1693;49.602;11.046;2023-06-10T02:47:53;18.43;;;13.73;;
3359;SDS011;1693;49.602;11.046;2023-06-10T02:50:20;15.13;;;12.63;;
3359;SDS011;1693;49.602;11.046;2023-06-10T02:52:48;12.60;;;11.40;;
3359;SDS011;1693;49.602;11.046;2023-06-10T02:55:15;14.90;;;12.47;;
3359;SDS011;1693;49.602;11.046;2023-06-10T02:57:42;12.80;;;11.60;;
3359;SDS011;1693;49.602;11.046;2023-06-10T03:00:10;12.23;;;11.10;;
3359;SDS011;1693;49.602;11.046;2023-06-10T03:02:46;12.10;;;10.93;;
3359;SDS011;1693;49.602;11.046;2023-06-10T03:05:14;11.60;;;10.03;;
3359;SDS011;1693;49.602;11.046;2023-06-10T03:07:42;10.83;;;9.73;;
3359;SDS011;1693;49.602;11.046;2023-06-10T03:10:11;10.67;;;9.67;;
3359;SDS011;1693;49.602;11.046;2023-06-10T03:12:38;10.23;;;9.20;;
3359;SDS011;1693;49.602;11.046;2023-06-10T03:15:06;10.13;;;9.23;;
3359;SDS011;1693;49.602;11.046;2023-06-10T03:17:34;9.50;;;8.60;;
3359;SDS011;1693;49.602;11.046;2023-06-10T03:20:02;12.23;;;9.03;;
3359;SDS011;1693;49.602;11.046;2023-06-10T03:22:30;10.80;;;9.77;;
3359;SDS011;1693;49.602;11.046;2023-06-10T03:24:58;9.80;;;8.70;;
3359;SDS011;1693;49.602;11.046;2023-06-10T03:27:25;11.40;;;10.27;;
3359;SDS011;1693;49.602;11.046;2023-06-10T03:29:52;10.83;;;9.93;;
3359;SDS011;1693;49.602;11.046;2023-06-10T03:32:19;13.47;;;10.43;;
3359;SDS011;1693;49.602;11.046;2023-06-10T03:34:46;10.77;;;9.63;;
3359;SDS011;1693;49.602;11.046;2023-06-10T03:37:15;11.17;;;10.17;;
3359;SDS011;1693;49.602;11.046;2023-06-10T03:39:42;11.30;;;10.20;;
3359;SDS011;1693;49.602;11.046;2023-06-10T03:42:09;12.03;;;10.80;;
3359;SDS011;1693;49.602;11.046;2023-06-10T03:44:36;12.80;;;11.80;;
3359;SDS011;1693;49.602;11.046;2023-06-10T03:47:03;14.33;;;11.83;;
3359;SDS011;1693;49.602;11.046;2023-06-10T03:49:31;13.10;;;11.90;;
3359;SDS011;1693;49.602;11.046;2023-06-10T03:51:58;13.77;;;12.50;;
3359;SDS011;1693;49.602;11.046;2023-06-10T03:54:27;11.50;;;10.30;;
3359;SDS011;1693;49.602;11.046;2023-06-10T03:56:54;11.40;;;10.37;;
3359;SDS011;1693;49.602;11.046;2023-06-10T03:59:21;16.23;;;9.83;;
3359;SDS011;1693;49.602;11.046;2023-06-10T04:01:48;9.13;;;7.90;;
3359;SDS011;1693;49.602;11.046;2023-06-10T04:04:15;10.67;;;9.77;;
3359;SDS011;1693;49.602;11.046;2023-06-10T04:06:42;10.33;;;9.23;;
3359;SDS011;1693;49.602;11.046;2023-06-10T04:09:10;16.00;;;7.83;;
3359;SDS011;1693;49.602;11.046;2023-06-10T04:11:39;10.77;;;8.67;;
3359;SDS011;1693;49.602;11.046;2023-06-10T04:14:06;10.33;;;9.33;;
3359;SDS011;1693;49.602;11.046;2023-06-10T04:16:34;13.10;;;9.17;;
3359;SDS011;1693;49.602;11.046;2023-06-10T04:19:01;10.83;;;9.83;;
3359;SDS011;1693;49.602;11.046;2023-06-10T04:21:28;11.90;;;9.97;;
3359;SDS011;1693;49.602;11.046;2023-06-10T04:23:55;10.37;;;9.37;;
3359;SDS011;1693;49.602;11.046;2023-06-10T04:26:22;9.73;;;8.83;;
3359;SDS011;1693;49.602;11.046;2023-06-10T04:28:52;10.27;;;9.30;;
3359;SDS011;1693;49.602;11.046;2023-06-10T04:31:19;8.87;;;8.07;;
3359;SDS011;1693;49.602;11.046;2023-06-10T04:33:45;9.90;;;9.00;;
3359;SDS011;1693;49.602;11.046;2023-06-10T04:36:12;9.67;;;8.67;;
3359;SDS011;1693;49.602;11.046;2023-06-10T04:38:40;10.97;;;9.87;;
3359;SDS011;1693;49.602;11.046;2023-06-10T04:41:07;10.40;;;7.77;;
3359;SDS011;1693;49.602;11.046;2023-06-10T04:43:34;12.93;;;9.10;;
3359;SDS011;1693;49.602;11.046;2023-06-10T04:46:03;10.03;;;9.20;;
3359;SDS011;1693;49.602;11.046;2023-06-10T04:48:30;9.40;;;8.40;;
3359;SDS011;1693;49.602;11.046;2023-06-10T04:51:00;11.27;;;8.60;;
3359;SDS011;1693;49.602;11.046;2023-06-10T04:53:27;8.40;;;7.60;;
3359;SDS011;1693;49.602;11.046;2023-06-10T04:55:54;9.23;;;8.43;;
3359;SDS011;1693;49.602;11.046;2023-06-10T04:58:22;9.13;;;8.30;;
3359;SDS011;1693;49.602;11.046;2023-06-10T05:00:49;9.33;;;8.43;;
3359;SDS011;1693;49.602;11.046;2023-06-10T05:03:18;9.57;;;8.67;;
3359;SDS011;1693;49.602;11.046;2023-06-10T05:05:45;9.80;;;7.93;;
3359;SDS011;1693;49.602;11.046;2023-06-10T05:08:14;9.00;;;8.20;;
3359;SDS011;1693;49.602;11.046;2023-06-10T05:10:41;10.13;;;9.13;;
3359;SDS011;1693;49.602;11.046;2023-06-10T05:13:08;9.30;;;8.50;;
3359;SDS011;1693;49.602;11.046;2023-06-10T05:15:35;9.20;;;8.40;;
3359;SDS011;1693;49.602;11.046;2023-06-10T05:18:03;9.90;;;8.47;;
3359;SDS011;1693;49.602;11.046;2023-06-10T05:20:31;8.70;;;8.00;;
3359;SDS011;1693;49.602;11.046;2023-06-10T05:22:59;8.70;;;7.30;;
3359;SDS011;1693;49.602;11.046;2023-06-10T05:25:26;8.47;;;7.70;;
3359;SDS011;1693;49.602;11.046;2023-06-10T05:27:56;9.13;;;8.23;;
3359;SDS011;1693;49.602;11.046;2023-06-10T05:30:23;9.37;;;8.40;;
3359;SDS011;1693;49.602;11.046;2023-06-10T05:32:51;12.23;;;8.07;;
3359;SDS011;1693;49.602;11.046;2023-06-10T05:35:19;8.87;;;7.57;;
3359;SDS011;1693;49.602;11.046;2023-06-10T05:37:47;8.20;;;7.40;;
3359;SDS011;1693;49.602;11.046;2023-06-10T05:40:15;8.80;;;8.00;;
3359;SDS011;1693;49.602;11.046;2023-06-10T05:42:42;10.30;;;9.40;;
3359;SDS011;1693;49.602;11.046;2023-06-10T05:45:10;12.30;;;7.77;;
3359;SDS011;1693;49.602;11.046;2023-06-10T05:47:38;8.17;;;7.37;;
3359;SDS011;1693;49.602;11.046;2023-06-10T05:50:05;7.33;;;6.73;;
3359;SDS011;1693;49.602;11.046;2023-06-10T05:52:33;9.97;;;9.00;;
3359;SDS011;1693;49.602;11.046;2023-06-10T05:55:03;7.97;;;7.23;;
3359;SDS011;1693;49.602;11.046;2023-06-10T05:57:30;7.90;;;7.17;;
3359;SDS011;1693;49.602;11.046;2023-06-10T05:59:57;7.73;;;7.00;;
3359;SDS011;1693;49.602;11.046;2023-06-10T06:02:25;7.47;;;6.77;;
3359;SDS011;1693;49.602;11.046;2023-06-10T06:04:52;7.87;;;7.17;;
3359;SDS011;1693;49.602;11.046;2023-06-10T06:07:19;8.40;;;7.60;;
3359;SDS011;1693;49.602;11.046;2023-06-10T06:09:46;8.03;;;7.40;;
3359;SDS011;1693;49.602;11.046;2023-06-10T06:12:15;7.20;;;6.60;;
3359;SDS011;1693;49.602;11.046;2023-06-10T06:14:42;8.43;;;7.63;;
3359;SDS011;1693;49.602;11.046;2023-06-10T06:17:09;9.70;;;7.60;;
3359;SDS011;1693;49.602;11.046;2023-06-10T06:19:37;8.50;;;7.60;;
3359;SDS011;1693;49.602;11.046;2023-06-10T06:22:05;8.30;;;7.50;;
3359;SDS011;1693;49.602;11.046;2023-06-10T06:24:32;8.13;;;7.33;;
3359;SDS011;1693;49.602;11.046;2023-06-10T06:27:00;9.30;;;8.40;;
3359;SDS011;1693;49.602;11.046;2023-06-10T06:29:29;8.13;;;7.43;;
3359;SDS011;1693;49.602;11.046;2023-06-10T06:31:56;8.47;;;7.77;;
3359;SDS011;1693;49.602;11.046;2023-06-10T06:34:23;7.80;;;6.70;;
3359;SDS011;1693;49.602;11.046;2023-06-10T06:36:50;10.27;;;7.03;;
3359;SDS011;1693;49.602;11.046;2023-06-10T06:39:17;8.53;;;7.73;;
3359;SDS011;1693;49.602;11.046;2023-06-10T06:41:44;8.77;;;8.00;;
3359;SDS011;1693;49.602;11.046;2023-06-10T06:44:11;8.30;;;7.60;;
3359;SDS011;1693;49.602;11.046;2023-06-10T06:46:39;8.70;;;6.70;;
3359;SDS011;1693;49.602;11.046;2023-06-10T06:49:06;14.17;;;6.87;;
3359;SDS011;1693;49.602;11.046;2023-06-10T06:51:33;6.30;;;5.70;;
3359;SDS011;1693;49.602;11.046;2023-06-10T06:54:01;9.73;;;7.80;;
3359;SDS011;1693;49.602;11.046;2023-06-10T06:56:28;8.53;;;7.77;;
3359;SDS011;1693;49.602;11.046;2023-06-10T06:58:55;7.73;;;6.93;;
3359;SDS011;1693;49.602;11.046;2023-06-10T07:01:22;8.17;;;7.47;;
3359;SDS011;1693;49.602;11.046;2023-06-10T07:03:51;6.90;;;6.30;;
3359;SDS011;1693;49.602;11.046;2023-06-10T07:06:18;8.10;;;7.40;;
3359;SDS011;1693;49.602;11.046;2023-06-10T07:08:45;8.13;;;7.33;;
3359;SDS011;1693;49.602;11.046;2023-06-10T07:11:12;7.40;;;6.40;;
3359;SDS011;1693;49.602;11.046;2023-06-10T07:13:41;7.53;;;6.83;;
3359;SDS011;1693;49.602;11.046;2023-06-10T07:16:08;7.03;;;6.43;;
3359;SDS011;1693;49.602;11.046;2023-06-10T07:18:35;7.53;;;6.83;;
3359;SDS011;1693;49.602;11.046;2023-06-10T07:21:04;7.00;;;6.37;;
3359;SDS011;1693;49.602;11.046;2023-06-10T07:23:31;11.33;;;9.10;;
3359;SDS011;1693;49.602;11.046;2023-06-10T07:25:58;7.10;;;6.40;;
3359;SDS011;1693;49.602;11.046;2023-06-10T07:28:25;9.40;;;6.87;;
3359;SDS011;1693;49.602;11.046;2023-06-10T07:30:52;4.83;;;4.33;;
3359;SDS011;1693;49.602;11.046;2023-06-10T07:33:19;5.90;;;5.30;;
3359;SDS011;1693;49.602;11.046;2023-06-10T07:35:46;7.27;;;6.57;;
3359;SDS011;1693;49.602;11.046;2023-06-10T07:38:16;6.00;;;5.40;;
3359;SDS011;1693;49.602;11.046;2023-06-10T07:40:45;5.33;;;4.70;;
3359;SDS011;1693;49.602;11.046;2023-06-10T07:43:12;4.93;;;4.53;;
3359;SDS011;1693;49.602;11.046;2023-06-10T07:45:39;6.90;;;5.43;;
3359;SDS011;1693;49.602;11.046;2023-06-10T07:48:06;5.33;;;4.83;;
3359;SDS011;1693;49.602;11.046;2023-06-10T07:50:34;5.27;;;4.77;;
3359;SDS011;1693;49.602;11.046;2023-06-10T07:53:01;5.83;;;5.33;;
3359;SDS011;1693;49.602;11.046;2023-06-10T07:55:30;5.23;;;4.80;;
3359;SDS011;1693;49.602;11.046;2023-06-10T07:57:57;4.77;;;4.33;;
3359;SDS011;1693;49.602;11.046;2023-06-10T08:00:24;4.70;;;4.30;;
3359;SDS011;1693;49.602;11.046;2023-06-10T08:02:51;5.50;;;5.07;;
3359;SDS011;1693;49.602;11.046;2023-06-10T08:05:19;5.40;;;4.80;;
3359;SDS011;1693;49.602;11.046;2023-06-10T08:07:46;6.43;;;5.83;;
3359;SDS011;1693;49.602;11.046;2023-06-10T08:10:15;5.70;;;4.90;;
3359;SDS011;1693;49.602;11.046;2023-06-10T08:12:43;5.60;;;5.10;;
3359;SDS011;1693;49.602;11.046;2023-06-10T08:15:11;5.83;;;5.37;;
3359;SDS011;1693;49.602;11.046;2023-06-10T08:17:38;5.60;;;5.00;;
3359;SDS011;1693;49.602;11.046;2023-06-10T08:20:06;7.40;;;5.53;;
3359;SDS011;1693;49.602;11.046;2023-06-10T08:22:33;4.90;;;4.50;;
3359;SDS011;1693;49.602;11.046;2023-06-10T08:25:01;4.87;;;4.47;;
3359;SDS011;1693;49.602;11.046;2023-06-10T08:27:28;4.80;;;4.30;;
3359;SDS011;1693;49.602;11.046;2023-06-10T08:29:57;4.50;;;4.10;;
3359;SDS011;1693;49.602;11.046;2023-06-10T08:32:26;4.63;;;3.60;;
3359;SDS011;1693;49.602;11.046;2023-06-10T08:34:53;5.00;;;4.60;;
3359;SDS011;1693;49.602;11.046;2023-06-10T08:37:20;4.77;;;4.30;;
3359;SDS011;1693;49.602;11.046;2023-06-10T08:39:48;4.20;;;3.90;;
3359;SDS011;1693;49.602;11.046;2023-06-10T08:42:17;5.03;;;4.63;;
3359;SDS011;1693;49.602;11.046;2023-06-10T08:44:48;6.03;;;4.23;;
3359;SDS011;1693;49.602;11.046;2023-06-10T08:47:20;5.07;;;3.73;;
3359;SDS011;1693;49.602;11.046;2023-06-10T08:49:49;4.50;;;3.93;;
3359;SDS011;1693;49.602;11.046;2023-06-10T08:52:18;3.83;;;3.53;;
3359;SDS011;1693;49.602;11.046;2023-06-10T08:54:48;4.47;;;4.03;;
3359;SDS011;1693;49.602;11.046;2023-06-10T08:57:16;4.63;;;4.23;;
3359;SDS011;1693;49.602;11.046;2023-06-10T08:59:45;4.70;;;3.80;;
3359;SDS011;1693;49.602;11.046;2023-06-10T09:02:13;4.30;;;3.90;;
3359;SDS011;1693;49.602;11.046;2023-06-10T09:04:46;4.67;;;4.27;;
3359;SDS011;1693;49.602;11.046;2023-06-10T09:07:15;4.10;;;3.70;;
3359;SDS011;1693;49.602;11.046;2023-06-10T09:09:42;4.13;;;3.80;;
3359;SDS011;1693;49.602;11.046;2023-06-10T09:12:10;3.70;;;3.40;;
3359;SDS011;1693;49.602;11.046;2023-06-10T09:14:37;4.80;;;3.87;;
3359;SDS011;1693;49.602;11.046;2023-06-10T09:17:05;3.33;;;3.03;;
3359;SDS011;1693;49.602;11.046;2023-06-10T09:19:34;3.93;;;3.60;;
3359;SDS011;1693;49.602;11.046;2023-06-10T09:22:05;4.37;;;3.97;;
3359;SDS011;1693;49.602;11.046;2023-06-10T09:24:32;4.20;;;3.73;;
3359;SDS011;1693;49.602;11.046;2023-06-10T09:27:03;7.40;;;3.30;;
3359;SDS011;1693;49.602;11.046;2023-06-10T09:29:31;6.50;;;4.20;;
3359;SDS011;1693;49.602;11.046;2023-06-10T09:31:59;4.50;;;3.17;;
3359;SDS011;1693;49.602;11.046;2023-06-10T09:34:27;3.13;;;2.93;;
3359;SDS011;1693;49.602;11.046;2023-06-10T09:36:55;3.10;;;2.70;;
3359;SDS011;1693;49.602;11.046;2023-06-10T09:39:24;5.10;;;3.50;;
3359;SDS011;1693;49.602;11.046;2023-06-10T09:41:51;5.20;;;3.60;;
3359;SDS011;1693;49.602;11.046;2023-06-10T09:44:20;3.80;;;3.03;;
3359;SDS011;1693;49.602;11.046;2023-06-10T09:46:49;2.67;;;2.43;;
3359;SDS011;1693;49.602;11.046;2023-06-10T09:49:17;3.57;;;3.23;;
3359;SDS011;1693;49.602;11.046;2023-06-10T09:51:51;3.30;;;2.70;;
3359;SDS011;1693;49.602;11.046;2023-06-10T09:54:19;5.30;;;2.70;;
3359;SDS011;1693;49.602;11.046;2023-06-10T09:56:48;8.97;;;3.80;;
3359;SDS011;1693;49.602;11.046;2023-06-10T09:59:15;7.07;;;3.10;;
3359;SDS011;1693;49.602;11.046;2023-06-10T10:01:43;3.00;;;2.80;;
3359;SDS011;1693;49.602;11.046;2023-06-10T10:04:10;3.40;;;3.10;;
3359;SDS011;1693;49.602;11.046;2023-06-10T10:06:37;3.50;;;3.20;;
3359;SDS011;1693;49.602;11.046;2023-06-10T10:09:06;4.13;;;2.67;;
3359;SDS011;1693;49.602;11.046;2023-06-10T10:11:33;2.63;;;2.40;;
3359;SDS011;1693;49.602;11.046;2023-06-10T10:14:03;3.20;;;2.97;;
3359;SDS011;1693;49.602;11.046;2023-06-10T10:16:33;3.53;;;3.23;;
3359;SDS011;1693;49.602;11.046;2023-06-10T10:19:04;3.67;;;3.17;;
3359;SDS011;1693;49.602;11.046;2023-06-10T10:21:37;3.50;;;2.80;;
3359;SDS011;1693;49.602;11.046;2023-06-10T10:24:07;3.13;;;2.83;;
3359;SDS011;1693;49.602;11.046;2023-06-10T10:26:35;3.63;;;3.33;;
3359;SDS011;1693;49.602;11.046;2023-06-10T10:29:07;3.50;;;2.93;;
3359;SDS011;1693;49.602;11.046;2023-06-10T10:31:37;3.40;;;3.10;;
3359;SDS011;1693;49.602;11.046;2023-06-10T10:34:05;3.20;;;2.90;;
3359;SDS011;1693;49.602;11.046;2023-06-10T10:36:33;3.47;;;3.17;;
3359;SDS011;1693;49.602;11.046;2023-06-10T10:39:02;3.20;;;2.90;;
3359;SDS011;1693;49.602;11.046;2023-06-10T10:41:29;3.47;;;3.20;;
3359;SDS011;1693;49.602;11.046;2023-06-10T10:43:57;3.10;;;2.80;;
3359;SDS011;1693;49.602;11.046;2023-06-10T10:46:26;5.13;;;3.47;;
3359;SDS011;1693;49.602;11.046;2023-06-10T10:48:54;3.87;;;3.17;;
3359;SDS011;1693;49.602;11.046;2023-06-10T10:51:23;3.17;;;2.87;;
3359;SDS011;1693;49.602;11.046;2023-06-10T10:56:36;4.57;;;3.03;;
3359;SDS011;1693;49.602;11.046;2023-06-10T10:59:04;3.67;;;3.27;;
3359;SDS011;1693;49.602;11.046;2023-06-10T11:01:40;3.67;;;3.37;;
3359;SDS011;1693;49.602;11.046;2023-06-10T11:04:11;3.93;;;3.63;;
3359;SDS011;1693;49.602;11.046;2023-06-10T11:06:38;2.27;;;2.07;;
3359;SDS011;1693;49.602;11.046;2023-06-10T11:11:56;3.30;;;3.00;;
3359;SDS011;1693;49.602;11.046;2023-06-10T11:14:28;4.13;;;3.40;;
3359;SDS011;1693;49.602;11.046;2023-06-10T11:16:57;3.30;;;2.97;;
3359;SDS011;1693;49.602;11.046;2023-06-10T11:19:31;3.33;;;3.03;;
3359;SDS011;1693;49.602;11.046;2023-06-10T11:21:59;3.57;;;3.27;;
3359;SDS011;1693;49.602;11.046;2023-06-10T11:24:28;3.73;;;3.37;;
3359;SDS011;1693;49.602;11.046;2023-06-10T11:26:55;4.73;;;3.10;;
3359;SDS011;1693;49.602;11.046;2023-06-10T11:29:54;4.03;;;2.93;;
3359;SDS011;1693;49.602;11.046;2023-06-10T11:32:23;3.30;;;3.00;;
3359;SDS011;1693;49.602;11.046;2023-06-10T11:34:51;4.47;;;3.00;;
3359;SDS011;1693;49.602;11.046;2023-06-10T11:37:21;7.03;;;3.77;;
3359;SDS011;1693;49.602;11.046;2023-06-10T11:39:51;3.60;;;3.17;;
3359;SDS011;1693;49.602;11.046;2023-06-10T11:42:18;4.23;;;3.00;;
3359;SDS011;1693;49.602;11.046;2023-06-10T11:44:49;3.70;;;3.30;;
3359;SDS011;1693;49.602;11.046;2023-06-10T11:47:17;4.90;;;3.47;;
3359;SDS011;1693;49.602;11.046;2023-06-10T11:49:51;4.10;;;3.80;;
3359;SDS011;1693;49.602;11.046;2023-06-10T11:52:25;4.07;;;3.77;;
3359;SDS011;1693;49.602;11.046;2023-06-10T11:54:53;3.67;;;3.37;;
3359;SDS011;1693;49.602;11.046;2023-06-10T11:57:21;3.33;;;3.03;;
3359;SDS011;1693;49.602;11.046;2023-06-10T11:59:48;4.20;;;3.73;;
3359;SDS011;1693;49.602;11.046;2023-06-10T12:02:15;4.33;;;3.93;;
3359;SDS011;1693;49.602;11.046;2023-06-10T12:04:42;3.47;;;3.17;;
3359;SDS011;1693;49.602;11.046;2023-06-10T12:07:16;3.30;;;3.00;;
3359;SDS011;1693;49.602;11.046;2023-06-10T12:09:44;3.57;;;3.27;;
3359;SDS011;1693;49.602;11.046;2023-06-10T12:12:11;3.10;;;2.80;;
3359;SDS011;1693;49.602;11.046;2023-06-10T12:14:51;3.70;;;3.40;;
3359;SDS011;1693;49.602;11.046;2023-06-10T12:17:20;3.50;;;3.20;;
3359;SDS011;1693;49.602;11.046;2023-06-10T12:19:47;3.57;;;3.27;;
3359;SDS011;1693;49.602;11.046;2023-06-10T12:22:17;3.97;;;3.33;;
3359;SDS011;1693;49.602;11.046;2023-06-10T12:24:45;3.50;;;3.10;;
3359;SDS011;1693;49.602;11.046;2023-06-10T12:27:25;3.07;;;2.87;;
3359;SDS011;1693;49.602;11.046;2023-06-10T12:29:54;3.63;;;3.33;;
3359;SDS011;1693;49.602;11.046;2023-06-10T12:32:34;4.53;;;2.80;;
3359;SDS011;1693;49.602;11.046;2023-06-10T12:35:02;3.70;;;3.27;;
3359;SDS011;1693;49.602;11.046;2023-06-10T12:37:31;2.87;;;2.67;;
3359;SDS011;1693;49.602;11.046;2023-06-10T12:40:00;3.57;;;3.27;;
3359;SDS011;1693;49.602;11.046;2023-06-10T12:42:28;8.40;;;3.83;;
3359;SDS011;1693;49.602;11.046;2023-06-10T12:44:56;4.90;;;4.17;;
3359;SDS011;1693;49.602;11.046;2023-06-10T12:47:29;2.93;;;2.60;;
3359;SDS011;1693;49.602;11.046;2023-06-10T12:49:58;3.33;;;3.03;;
3359;SDS011;1693;49.602;11.046;2023-06-10T12:52:25;3.50;;;2.73;;
3359;SDS011;1693;49.602;11.046;2023-06-10T12:54:53;3.20;;;2.80;;
3359;SDS011;1693;49.602;11.046;2023-06-10T12:57:21;3.20;;;2.90;;
3359;SDS011;1693;49.602;11.046;2023-06-10T12:59:48;3.10;;;2.80;;
3359;SDS011;1693;49.602;11.046;2023-06-10T13:02:17;3.60;;;3.30;;
3359;SDS011;1693;49.602;11.046;2023-06-10T13:04:45;3.27;;;2.97;;
3359;SDS011;1693;49.602;11.046;2023-06-10T13:07:13;3.00;;;2.50;;
3359;SDS011;1693;49.602;11.046;2023-06-10T13:09:40;6.80;;;2.60;;
3359;SDS011;1693;49.602;11.046;2023-06-10T13:12:09;3.03;;;2.73;;
3359;SDS011;1693;49.602;11.046;2023-06-10T13:14:37;3.53;;;2.93;;
3359;SDS011;1693;49.602;11.046;2023-06-10T13:17:05;2.70;;;2.50;;
3359;SDS011;1693;49.602;11.046;2023-06-10T13:19:32;2.73;;;2.53;;
3359;SDS011;1693;49.602;11.046;2023-06-10T13:21:59;4.00;;;2.70;;
3359;SDS011;1693;49.602;11.046;2023-06-10T13:24:27;3.63;;;2.80;;
3359;SDS011;1693;49.602;11.046;2023-06-10T13:26:54;2.40;;;2.00;;
3359;SDS011;1693;49.602;11.046;2023-06-10T13:29:24;3.37;;;3.07;;
3359;SDS011;1693;49.602;11.046;2023-06-10T13:31:51;3.47;;;2.33;;
3359;SDS011;1693;49.602;11.046;2023-06-10T13:34:18;4.37;;;2.77;;
3359;SDS011;1693;49.602;11.046;2023-06-10T13:36:45;2.70;;;2.40;;
3359;SDS011;1693;49.602;11.046;2023-06-10T13:39:12;2.70;;;2.50;;
3359;SDS011;1693;49.602;11.046;2023-06-10T13:41:39;2.63;;;2.23;;
3359;SDS011;1693;49.602;11.046;2023-06-10T13:44:07;2.60;;;2.40;;
3359;SDS011;1693;49.602;11.046;2023-06-10T13:46:36;3.00;;;2.70;;
3359;SDS011;1693;49.602;11.046;2023-06-10T13:49:03;2.83;;;2.33;;
3359;SDS011;1693;49.602;11.046;2023-06-10T13:51:30;3.00;;;2.50;;
3359;SDS011;1693;49.602;11.046;2023-06-10T13:53:58;2.57;;;1.90;;
3359;SDS011;1693;49.602;11.046;2023-06-10T13:56:25;2.60;;;2.10;;
3359;SDS011;1693;49.602;11.046;2023-06-10T13:58:52;2.27;;;1.80;;
3359;SDS011;1693;49.602;11.046;2023-06-10T14:01:20;3.23;;;2.00;;
3359;SDS011;1693;49.602;11.046;2023-06-10T14:03:48;2.97;;;2.53;;
3359;SDS011;1693;49.602;11.046;2023-06-10T14:06:15;3.03;;;2.47;;
3359;SDS011;1693;49.602;11.046;2023-06-10T14:08:44;3.40;;;2.63;;
3359;SDS011;1693;49.602;11.046;2023-06-10T14:11:11;2.83;;;2.53;;
3359;SDS011;1693;49.602;11.046;2023-06-10T14:13:38;3.27;;;2.50;;
3359;SDS011;1693;49.602;11.046;2023-06-10T14:16:05;3.17;;;2.77;;
3359;SDS011;1693;49.602;11.046;2023-06-10T14:18:32;3.00;;;2.60;;
3359;SDS011;1693;49.602;11.046;2023-06-10T14:21:01;2.73;;;2.17;;
3359;SDS011;1693;49.602;11.046;2023-06-10T14:23:28;2.90;;;2.50;;
3359;SDS011;1693;49.602;11.046;2023-06-10T14:25:55;3.07;;;2.53;;
3359;SDS011;1693;49.602;11.046;2023-06-10T14:28:22;4.10;;;2.47;;
3359;SDS011;1693;49.602;11.046;2023-06-10T14:30:51;2.60;;;2.10;;
3359;SDS011;1693;49.602;11.046;2023-06-10T14:33:19;2.70;;;2.10;;
3359;SDS011;1693;49.602;11.046;2023-06-10T14:35:47;2.27;;;1.70;;
3359;SDS011;1693;49.602;11.046;2023-06-10T14:38:16;3.97;;;2.50;;
3359;SDS011;1693;49.602;11.046;2023-06-10T14:40:43;3.10;;;2.70;;
3359;SDS011;1693;49.602;11.046;2023-06-10T14:43:10;2.93;;;2.60;;
3359;SDS011;1693;49.602;11.046;2023-06-10T14:45:38;2.70;;;2.37;;
3359;SDS011;1693;49.602;11.046;2023-06-10T14:48:06;3.47;;;2.50;;
3359;SDS011;1693;49.602;11.046;2023-06-10T14:50:34;2.77;;;2.40;;
3359;SDS011;1693;49.602;11.046;2023-06-10T14:53:01;3.20;;;2.57;;
3359;SDS011;1693;49.602;11.046;2023-06-10T14:55:30;3.57;;;2.30;;
3359;SDS011;1693;49.602;11.046;2023-06-10T14:57:57;4.30;;;3.00;;
3359;SDS011;1693;49.602;11.046;2023-06-10T15:00:24;29.47;;;25.20;;
3359;SDS011;1693;49.602;11.046;2023-06-10T15:02:51;6.37;;;3.40;;
3359;SDS011;1693;49.602;11.046;2023-06-10T15:05:20;2.90;;;2.60;;
3359;SDS011;1693;49.602;11.046;2023-06-10T15:07:48;12.40;;;4.47;;